createdAt,value
2023-03-03T00:07:44.898Z,98937.12
2023-03-03T00:17:52.620Z,98929.68
2023-03-03T00:28:03.455Z,98920.48
2023-03-03T00:38:16.252Z,98919.62
2023-03-03T00:48:27.232Z,98914.11
2023-03-03T00:58:34.474Z,98912.70
2023-03-03T01:08:42.341Z,98904.21
2023-03-03T01:18:49.598Z,98894.86
2023-03-03T01:28:56.770Z,98887.55
2023-03-03T01:39:04.157Z,98889.23
2023-03-03T01:49:14.105Z,98881.71
2023-03-03T01:59:19.932Z,98877.32
2023-03-03T02:09:26.620Z,98868.65
2023-03-03T02:19:34.107Z,98854.10
2023-03-03T02:29:41.322Z,98851.02
2023-03-03T02:39:47.449Z,98852.46
2023-03-03T02:49:54.427Z,98845.86
2023-03-03T03:00:01.452Z,98834.23
2023-03-03T03:10:08.239Z,98832.14
2023-03-03T03:20:16.115Z,98846.11
2023-03-03T03:30:23.127Z,98851.46
2023-03-03T03:40:30.716Z,98841.08
2023-03-03T03:50:37.342Z,98834.63
2023-03-03T04:00:42.080Z,98843.89
2023-03-03T04:10:49.415Z,98832.14
2023-03-03T04:20:56.503Z,98831.98
2023-03-03T04:31:03.598Z,98829.23
2023-03-03T04:41:11.244Z,98826.54
2023-03-03T04:51:18.862Z,98837.10
2023-03-03T05:01:26.233Z,98858.10
2023-03-03T05:11:32.851Z,98846.30
2023-03-03T05:21:39.326Z,98856.86
2023-03-03T05:31:46.585Z,98855.84
2023-03-03T05:41:53.771Z,98854.89
2023-03-03T05:52:01.397Z,98837.81
2023-03-03T06:02:08.035Z,98846.09
2023-03-03T06:12:15.441Z,98846.20
2023-03-03T06:22:21.807Z,98841.33
2023-03-03T06:32:29.093Z,98843.02
2023-03-03T06:42:36.737Z,98853.11
2023-03-03T06:52:43.810Z,98856.27
2023-03-03T07:02:55.353Z,98857.33
2023-03-03T07:13:18.418Z,98866.84
2023-03-03T07:23:28.190Z,98883.41
2023-03-03T07:33:36.460Z,98885.09
2023-03-03T07:43:49.362Z,98877.42
2023-03-03T07:53:56.216Z,98898.16
2023-03-03T08:04:07.572Z,98909.71
2023-03-03T08:14:18.012Z,98901.71
2023-03-03T08:24:22.926Z,98891.94
2023-03-03T08:34:30.056Z,98903.61
2023-03-03T08:44:35.280Z,98912.27
2023-03-03T08:54:42.650Z,98909.39
2023-03-03T09:04:49.888Z,98886.14
2023-03-03T09:25:19.467Z,98901.17
2023-03-03T09:35:31.430Z,98913.98
2023-03-03T09:45:54.934Z,98922.22
2023-03-03T09:55:59.719Z,98930.13
2023-03-03T10:06:13.527Z,98931.64
2023-03-03T10:16:28.177Z,98933.16
2023-03-03T10:26:45.798Z,98936.96
2023-03-03T10:36:55.670Z,98930.45
2023-03-03T10:47:24.895Z,98924.98
2023-03-03T10:57:31.629Z,98911.66
2023-03-03T11:07:37.040Z,98909.61
2023-03-03T11:17:47.178Z,98908.98
2023-03-03T11:28:01.653Z,98907.33
2023-03-03T11:38:09.573Z,98898.91
2023-03-03T11:48:16.128Z,98892.51
2023-03-03T11:58:24.538Z,98890.00
2023-03-03T12:08:35.128Z,98887.70
2023-03-03T12:19:05.971Z,98879.24
2023-03-03T12:29:13.128Z,98885.80
2023-03-03T12:39:33.728Z,98878.34
2023-03-03T12:49:44.121Z,98872.05
2023-03-03T12:59:53.037Z,98875.21
2023-03-03T13:10:07.738Z,98878.02
2023-03-03T13:20:20.642Z,98877.75
2023-03-03T13:30:34.628Z,98876.62
2023-03-03T13:40:44.630Z,98874.04
2023-03-03T13:50:55.991Z,98871.44
2023-03-03T14:01:03.682Z,98871.01
2023-03-03T14:11:18.350Z,98862.02
2023-03-03T14:21:28.235Z,98853.13
2023-03-03T14:31:33.661Z,98855.86
2023-03-03T14:41:43.315Z,98842.61
2023-03-03T14:51:49.586Z,98833.46
2023-03-03T15:02:03.837Z,98831.06
2023-03-03T15:12:35.461Z,98833.04
2023-03-03T15:22:44.384Z,98832.28
2023-03-03T15:32:54.559Z,98828.61
2023-03-03T15:43:15.026Z,98821.89
2023-03-03T15:53:26.085Z,98827.14
2023-03-03T16:03:31.453Z,98822.05
2023-03-03T16:13:42.376Z,98822.14
2023-03-03T16:23:48.008Z,98819.77
2023-03-03T16:33:53.539Z,98821.38
2023-03-03T16:44:06.204Z,98823.34
2023-03-03T16:54:17.172Z,98831.93
2023-03-03T17:04:24.333Z,98834.57
2023-03-03T17:14:34.960Z,98831.89
2023-03-03T17:24:41.395Z,98832.51
2023-03-03T17:34:49.614Z,98838.83
2023-03-03T17:44:57.434Z,98839.08
2023-03-03T17:55:22.686Z,98847.93
2023-03-03T18:05:37.302Z,98837.42
2023-03-03T18:15:58.771Z,98823.52
2023-03-03T18:26:38.967Z,98822.58
2023-03-03T18:36:52.368Z,98817.48
2023-03-03T18:46:57.818Z,98817.20
2023-03-03T18:57:19.370Z,98827.16
2023-03-03T19:07:23.484Z,98824.27
2023-03-03T19:17:54.768Z,98831.16
2023-03-03T19:28:04.515Z,98835.80
2023-03-03T19:38:18.760Z,98831.10
2023-03-03T19:48:25.245Z,98820.91
2023-03-03T19:58:30.881Z,98818.44
2023-03-03T20:08:42.274Z,98829.77
2023-03-03T20:18:58.926Z,98824.40
2023-03-03T20:29:28.973Z,98806.62
2023-03-03T20:39:52.962Z,98796.15
2023-03-03T20:50:03.886Z,98795.48
2023-03-03T21:00:20.318Z,98793.30
2023-03-03T21:10:27.460Z,98779.80
2023-03-03T21:20:34.529Z,98767.89
2023-03-03T21:31:00.304Z,98753.63
2023-03-03T21:41:05.126Z,98737.32
2023-03-03T21:51:10.182Z,98718.04
2023-03-03T22:01:16.406Z,98715.65
2023-03-03T22:11:23.649Z,98712.91
2023-03-03T22:21:30.962Z,98702.05
2023-03-03T22:31:38.228Z,98692.30
2023-03-03T22:41:45.628Z,98685.79
2023-03-03T22:51:53.664Z,98667.40
2023-03-03T23:02:00.889Z,98659.48
2023-03-03T23:12:05.668Z,98638.95
2023-03-03T23:22:12.759Z,98628.57
2023-03-03T23:32:21.005Z,98622.36
2023-03-03T23:42:28.152Z,98610.55
2023-03-03T23:52:34.541Z,98609.39
